Time;durP1;ratioP1;P1;durP2;ratioP2;P2;SDS_P1;SDS_P2;PMS_P1;PMS_P2;Temp;Humidity;BMP_temperature;BMP_pressure;BME280_temperature;BME280_humidity;BME280_pressure;Samples;Min_cycle;Max_cycle;Signal;HPM_P1;HPM_P2
2022/11/19 00:02:05;;;;;;;;;;;6.10;99.90;;;;;;5094078;28;19912;-73
2022/11/19 00:04:30;;;;;;;;;;;6.10;99.90;;;;;;5094313;28;19935;-73
2022/11/19 00:06:56;;;;;;;;;;;5.80;99.90;;;;;;5093745;28;19997;-74
2022/11/19 00:09:21;;;;;;;;;;;5.70;99.90;;;;;;5093654;28;19912;-73
2022/11/19 00:14:33;;;;;;;;;;;5.60;99.90;;;;;;5094014;28;19955;-72
2022/11/19 00:16:59;;;;;;;;;;;5.70;99.90;;;;;;5093640;28;20373;-72
2022/11/19 00:19:24;;;;;;;;;;;5.70;99.90;;;;;;5093601;28;19991;-73
2022/11/19 00:21:50;;;;;;;;;;;5.60;99.90;;;;;;5093634;28;20301;-71
2022/11/19 00:24:15;;;;;;;;;;;5.70;99.90;;;;;;5093880;28;20024;-73
2022/11/19 00:26:41;;;;;;;;;;;5.80;99.90;;;;;;5093591;28;19908;-72
2022/11/19 00:29:06;;;;;;;;;;;6.00;99.90;;;;;;5093483;28;20404;-74
2022/11/19 00:31:32;;;;;;;;;;;6.00;99.90;;;;;;5093555;28;19914;-74
2022/11/19 00:33:57;;;;;;;;;;;5.80;99.90;;;;;;5093785;28;19915;-74
2022/11/19 00:36:23;;;;;;;;;;;6.00;99.90;;;;;;5093532;28;19908;-72
2022/11/19 00:38:48;;;;;;;;;;;6.20;99.90;;;;;;5093475;28;19915;-73
2022/11/19 00:41:14;;;;;;;;;;;6.30;99.90;;;;;;5094025;28;19922;-72
2022/11/19 00:43:45;;;;;;;;;;;6.10;99.90;;;;;;5093584;28;20400;-73
2022/11/19 00:46:12;;;;;;;;;;;5.90;99.90;;;;;;5094026;28;19918;-74
2022/11/19 00:48:38;;;;;;;;;;;5.80;99.90;;;;;;5093292;28;19919;-73
2022/11/19 00:51:04;;;;;;;;;;;5.80;99.90;;;;;;5093351;28;19908;-72
2022/11/19 00:53:29;;;;;;;;;;;5.80;99.90;;;;;;5093118;28;20362;-72
2022/11/19 00:55:58;;;;;;;;;;;5.90;99.90;;;;;;5093588;28;19908;-72
2022/11/19 00:58:23;;;;;;;;;;;5.90;99.90;;;;;;5093535;28;19915;-72
2022/11/19 01:00:50;;;;;;;;;;;5.90;99.90;;;;;;5075139;28;19908;-71
2022/11/19 01:03:15;;;;;;;;;;;5.90;99.90;;;;;;5093265;28;19908;-71
2022/11/19 01:05:41;;;;;;;;;;;5.80;99.90;;;;;;5096634;28;20263;-72
2022/11/19 01:08:06;;;;;;;;;;;5.70;99.90;;;;;;5097201;28;19923;-72
2022/11/19 01:10:33;;;;;;;;;;;5.60;99.90;;;;;;5096967;28;19966;-72
2022/11/19 01:15:45;;;;;;;;;;;5.40;99.90;;;;;;5096879;28;19915;-72
2022/11/19 01:18:11;;;;;;;;;;;5.30;99.90;;;;;;5096810;28;19991;-73
2022/11/19 01:20:36;;;;;;;;;;;5.30;99.90;;;;;;5097311;28;19943;-73
2022/11/19 01:23:02;;;;;;;;;;;5.30;99.90;;;;;;5096720;28;19930;-72
2022/11/19 01:25:27;;;;;;;;;;;5.30;99.90;;;;;;5096964;28;19916;-73
2022/11/19 01:27:53;;;;;;;;;;;5.30;99.90;;;;;;5096645;28;19908;-72
2022/11/19 01:30:18;;;;;;;;;;;5.30;99.90;;;;;;5096874;28;20328;-73
2022/11/19 01:32:44;;;;;;;;;;;5.30;99.90;;;;;;5096529;28;20316;-73
2022/11/19 01:35:09;;;;;;;;;;;5.20;99.90;;;;;;5096738;28;19915;-73
2022/11/19 01:37:35;;;;;;;;;;;5.20;99.90;;;;;;5096393;28;19943;-73
2022/11/19 01:40:00;;;;;;;;;;;5.10;99.90;;;;;;5096401;28;20383;-73
2022/11/19 01:45:27;;;;;;;;;;;5.20;99.90;;;;;;5096364;28;19919;-72
2022/11/19 01:47:54;;;;;;;;;;;5.10;99.90;;;;;;5096300;28;19977;-72
2022/11/19 01:50:20;;;;;;;;;;;5.20;99.90;;;;;;5096179;28;19912;-74
2022/11/19 01:52:45;;;;;;;;;;;5.30;99.90;;;;;;5095982;28;19950;-72
2022/11/19 01:55:11;;;;;;;;;;;5.30;99.90;;;;;;5096095;28;19916;-71
2022/11/19 01:57:38;;;;;;;;;;;5.40;99.90;;;;;;5096337;28;19998;-74
2022/11/19 02:00:04;;;;;;;;;;;5.40;99.90;;;;;;5096020;28;19908;-72
2022/11/19 02:02:30;;;;;;;;;;;5.40;99.90;;;;;;5095971;28;19958;-72
2022/11/19 02:04:56;;;;;;;;;;;5.20;99.90;;;;;;5096410;28;19908;-73
2022/11/19 02:07:27;;;;;;;;;;;5.20;99.90;;;;;;5096204;28;19908;-73
2022/11/19 02:09:57;;;;;;;;;;;5.20;99.90;;;;;;5096058;28;19912;-73
2022/11/19 02:12:22;;;;;;;;;;;5.20;99.90;;;;;;5095762;28;19912;-72
2022/11/19 02:14:48;;;;;;;;;;;5.20;99.90;;;;;;5095754;28;19908;-74
2022/11/19 02:17:13;;;;;;;;;;;5.30;99.90;;;;;;5095454;28;20338;-73
2022/11/19 02:19:57;;;;;;;;;;;5.20;99.90;;;;;;5095595;28;19915;-71
2022/11/19 02:22:28;;;;;;;;;;;5.10;99.90;;;;;;5095572;28;20435;-73
2022/11/19 02:24:56;;;;;;;;;;;5.10;99.90;;;;;;5096097;28;19908;-74
2022/11/19 02:27:21;;;;;;;;;;;5.10;99.90;;;;;;5095455;28;19931;-73
2022/11/19 02:30:03;;;;;;;;;;;5.00;99.90;;;;;;5095333;28;20373;-72
2022/11/19 02:32:33;;;;;;;;;;;5.00;99.90;;;;;;5095638;28;19951;-72
2022/11/19 02:35:03;;;;;;;;;;;5.00;99.90;;;;;;5095289;28;19954;-73
2022/11/19 02:37:36;;;;;;;;;;;5.00;99.90;;;;;;5095831;28;19908;-71
2022/11/19 02:40:05;;;;;;;;;;;5.10;99.90;;;;;;5095494;28;19980;-74
2022/11/19 02:42:49;;;;;;;;;;;5.10;99.90;;;;;;5076822;28;20029;-73
2022/11/19 02:45:21;;;;;;;;;;;5.20;99.90;;;;;;5095394;28;19930;-73
2022/11/19 02:47:50;;;;;;;;;;;5.30;99.90;;;;;;5088752;28;19935;-73
2022/11/19 02:50:18;;;;;;;;;;;5.30;99.90;;;;;;5095209;28;19916;-72
2022/11/19 02:52:45;;;;;;;;;;;5.30;99.90;;;;;;5094964;28;19920;-72
2022/11/19 02:55:12;;;;;;;;;;;5.20;99.90;;;;;;5094934;28;19912;-71
2022/11/19 02:57:39;;;;;;;;;;;5.30;99.90;;;;;;5095202;28;19908;-73
2022/11/19 03:05:54;;;;;;;;;;;5.20;99.90;;;;;;5033037;28;19909;-73
2022/11/19 03:08:20;;;;;;;;;;;5.10;99.90;;;;;;5082174;28;19916;-72
2022/11/19 03:10:51;;;;;;;;;;;5.10;99.90;;;;;;5094620;28;19920;-73
2022/11/19 03:18:53;;;;;;;;;;;5.10;99.90;;;;;;5094566;28;19915;-72
2022/11/19 03:21:21;;;;;;;;;;;5.10;99.90;;;;;;5094416;28;19908;-73
2022/11/19 03:23:53;;;;;;;;;;;5.00;99.90;;;;;;5094387;28;20014;-74
2022/11/19 03:26:37;;;;;;;;;;;4.90;99.90;;;;;;5094378;28;20301;-71
2022/11/19 03:29:06;;;;;;;;;;;4.80;99.90;;;;;;5094221;28;19998;-73
2022/11/19 03:31:33;;;;;;;;;;;4.80;99.90;;;;;;5094290;28;19993;-74
2022/11/19 03:34:00;;;;;;;;;;;4.80;99.90;;;;;;5094836;28;20002;-73
2022/11/19 03:36:30;;;;;;;;;;;4.70;99.90;;;;;;5094241;28;20324;-73
2022/11/19 03:38:57;;;;;;;;;;;4.60;99.90;;;;;;5094141;28;19908;-72
2022/11/19 03:41:24;;;;;;;;;;;4.60;99.90;;;;;;5094673;28;19908;-74
2022/11/19 03:43:57;;;;;;;;;;;4.70;99.90;;;;;;5094003;28;19957;-72
2022/11/19 03:46:24;;;;;;;;;;;4.80;99.90;;;;;;5075651;28;20296;-73
2022/11/19 03:48:51;;;;;;;;;;;4.90;99.90;;;;;;5094501;28;19912;-74
2022/11/19 03:51:19;;;;;;;;;;;4.90;99.90;;;;;;5093726;28;19924;-73
2022/11/19 03:53:45;;;;;;;;;;;4.90;99.90;;;;;;5094286;28;19999;-74
2022/11/19 03:56:11;;;;;;;;;;;5.00;99.90;;;;;;5093931;28;20404;-73
2022/11/19 03:58:38;;;;;;;;;;;5.00;99.90;;;;;;5093866;28;19908;-72
2022/11/19 04:01:03;;;;;;;;;;;5.00;99.90;;;;;;5093835;28;19908;-73
2022/11/19 04:03:29;;;;;;;;;;;5.00;99.90;;;;;;5094122;28;19931;-72
2022/11/19 04:05:54;;;;;;;;;;;4.80;99.90;;;;;;5094278;28;19908;-72
2022/11/19 04:08:20;;;;;;;;;;;4.60;99.90;;;;;;5093955;28;19920;-73
2022/11/19 04:10:45;;;;;;;;;;;4.60;99.90;;;;;;5093743;28;19912;-73
2022/11/19 04:13:11;;;;;;;;;;;4.70;99.90;;;;;;5093737;28;19921;-72
2022/11/19 04:15:36;;;;;;;;;;;4.80;99.90;;;;;;5094008;28;19958;-72
2022/11/19 04:18:02;;;;;;;;;;;4.70;99.90;;;;;;5093636;28;20373;-74
2022/11/19 04:20:27;;;;;;;;;;;4.60;99.90;;;;;;5075490;28;19909;-74
2022/11/19 04:22:53;;;;;;;;;;;4.50;99.90;;;;;;5094864;28;19908;-72
2022/11/19 04:25:18;;;;;;;;;;;4.50;99.90;;;;;;5094442;28;20334;-74
2022/11/19 04:27:45;;;;;;;;;;;4.50;99.90;;;;;;5094027;28;19994;-72
2022/11/19 04:30:10;;;;;;;;;;;4.60;99.90;;;;;;5093844;28;19966;-71
2022/11/19 04:32:36;;;;;;;;;;;4.60;99.90;;;;;;5075393;28;19963;-71
2022/11/19 04:35:01;;;;;;;;;;;4.60;99.90;;;;;;5093563;28;19989;-73
2022/11/19 04:37:27;;;;;;;;;;;4.60;99.90;;;;;;5093814;28;20354;-74
2022/11/19 04:39:52;;;;;;;;;;;4.60;99.90;;;;;;5095272;28;20259;-71
2022/11/19 04:42:18;;;;;;;;;;;4.60;99.90;;;;;;5097749;28;19915;-72
2022/11/19 04:44:43;;;;;;;;;;;4.50;99.90;;;;;;5097370;28;19957;-73
2022/11/19 04:47:09;;;;;;;;;;;4.50;99.90;;;;;;5097713;28;19951;-71
2022/11/19 04:49:34;;;;;;;;;;;4.60;99.90;;;;;;5097283;28;20289;-74
2022/11/19 04:52:00;;;;;;;;;;;4.70;99.90;;;;;;5097111;28;19973;-71
2022/11/19 04:54:25;;;;;;;;;;;4.70;99.90;;;;;;5097542;28;19915;-73
2022/11/19 04:56:51;;;;;;;;;;;4.70;99.90;;;;;;5097221;28;20309;-72
2022/11/19 04:59:16;;;;;;;;;;;4.70;99.90;;;;;;5097154;28;19995;-74
2022/11/19 05:01:42;;;;;;;;;;;4.70;99.90;;;;;;5097454;28;19908;-74
2022/11/19 05:04:08;;;;;;;;;;;4.70;99.90;;;;;;5097066;28;19966;-74
2022/11/19 05:06:34;;;;;;;;;;;4.80;99.90;;;;;;5097606;28;20374;-74
2022/11/19 05:09:00;;;;;;;;;;;4.90;99.90;;;;;;5097246;28;19912;-74
2022/11/19 05:11:26;;;;;;;;;;;4.90;99.90;;;;;;5097012;28;19940;-73
2022/11/19 05:13:51;;;;;;;;;;;4.90;99.90;;;;;;5097208;28;20259;-72
2022/11/19 05:16:17;;;;;;;;;;;4.90;99.90;;;;;;5097222;28;19994;-72
2022/11/19 05:18:42;;;;;;;;;;;4.90;99.90;;;;;;5097136;28;19951;-76
2022/11/19 05:21:08;;;;;;;;;;;4.80;99.90;;;;;;5096757;28;19916;-72
2022/11/19 05:23:33;;;;;;;;;;;4.80;99.90;;;;;;5097332;28;19908;-73
2022/11/19 05:25:59;;;;;;;;;;;4.70;99.90;;;;;;5096708;28;20333;-73
2022/11/19 05:28:25;;;;;;;;;;;4.80;99.90;;;;;;5096895;28;19998;-75
2022/11/19 05:30:54;;;;;;;;;;;4.80;99.90;;;;;;5096620;28;19915;-73
2022/11/19 05:33:19;;;;;;;;;;;4.80;99.90;;;;;;5096846;28;20301;-73
2022/11/19 05:35:45;;;;;;;;;;;4.70;99.90;;;;;;5096823;28;19915;-73
2022/11/19 05:38:10;;;;;;;;;;;4.70;99.90;;;;;;5096477;28;20068;-72
2022/11/19 05:40:36;;;;;;;;;;;4.60;99.90;;;;;;5096996;28;19912;-73
2022/11/19 05:43:02;;;;;;;;;;;4.60;99.90;;;;;;5096523;28;19908;-74
2022/11/19 05:45:28;;;;;;;;;;;4.50;99.90;;;;;;5095113;28;19915;-72
2022/11/19 05:47:54;;;;;;;;;;;4.50;99.90;;;;;;5096301;28;20278;-72
2022/11/19 05:50:19;;;;;;;;;;;4.50;99.90;;;;;;5077548;28;19912;-72
2022/11/19 05:52:44;;;;;;;;;;;4.50;99.90;;;;;;5095330;28;20347;-72
2022/11/19 05:55:10;;;;;;;;;;;4.60;99.90;;;;;;5095797;28;19912;-72
2022/11/19 05:57:35;;;;;;;;;;;4.40;99.90;;;;;;5096071;28;19912;-72
2022/11/19 06:00:01;;;;;;;;;;;4.40;99.90;;;;;;5096320;28;20377;-72
2022/11/19 06:02:27;;;;;;;;;;;4.40;99.90;;;;;;5077814;28;20002;-73
2022/11/19 06:04:52;;;;;;;;;;;4.40;99.90;;;;;;5096726;28;20273;-74
2022/11/19 06:07:18;;;;;;;;;;;4.50;99.90;;;;;;5095891;28;19922;-74
2022/11/19 06:09:43;;;;;;;;;;;4.50;99.90;;;;;;5096069;28;19963;-73
2022/11/19 06:12:09;;;;;;;;;;;4.30;99.90;;;;;;5095829;28;19915;-74
2022/11/19 06:14:34;;;;;;;;;;;4.30;99.90;;;;;;5095771;28;19999;-74
2022/11/19 06:17:00;;;;;;;;;;;4.30;99.90;;;;;;5095967;28;20313;-73
2022/11/19 06:19:25;;;;;;;;;;;4.30;99.90;;;;;;5095632;28;19909;-72
2022/11/19 06:21:51;;;;;;;;;;;4.30;99.90;;;;;;5095628;28;19915;-72
2022/11/19 06:24:17;;;;;;;;;;;4.40;99.90;;;;;;5095537;28;19935;-75
2022/11/19 06:26:42;;;;;;;;;;;4.40;99.90;;;;;;5095542;28;19914;-72
2022/11/19 06:29:08;;;;;;;;;;;4.30;99.90;;;;;;5095376;28;20281;-71
2022/11/19 06:31:34;;;;;;;;;;;4.30;99.90;;;;;;5095425;28;20365;-74
2022/11/19 06:33:59;;;;;;;;;;;4.30;99.90;;;;;;5095371;28;19909;-72
2022/11/19 06:36:25;;;;;;;;;;;4.40;99.90;;;;;;5095572;28;19908;-74
2022/11/19 06:38:51;;;;;;;;;;;4.40;99.90;;;;;;5095231;28;19947;-72
2022/11/19 06:41:17;;;;;;;;;;;4.40;99.90;;;;;;5095547;28;20370;-73
2022/11/19 06:43:43;;;;;;;;;;;4.50;99.90;;;;;;5095243;28;19908;-72
2022/11/19 06:46:11;;;;;;;;;;;4.50;99.90;;;;;;5095127;28;19915;-72
2022/11/19 06:48:37;;;;;;;;;;;4.50;99.90;;;;;;5095324;28;19938;-73
2022/11/19 06:51:03;;;;;;;;;;;4.40;99.90;;;;;;5095297;28;20358;-73
2022/11/19 06:53:28;;;;;;;;;;;4.30;99.90;;;;;;5094867;28;19927;-74
2022/11/19 06:55:55;;;;;;;;;;;4.30;99.90;;;;;;5094947;28;20326;-75
2022/11/19 06:58:20;;;;;;;;;;;4.30;99.90;;;;;;5094894;28;19946;-73
2022/11/19 07:00:46;;;;;;;;;;;4.40;99.90;;;;;;5094863;28;19954;-72
2022/11/19 07:03:11;;;;;;;;;;;4.30;99.90;;;;;;5094818;28;19918;-73
2022/11/19 07:05:37;;;;;;;;;;;4.20;99.90;;;;;;5095294;28;19908;-74
2022/11/19 07:08:03;;;;;;;;;;;4.20;99.90;;;;;;5095006;28;20340;-74
2022/11/19 07:10:28;;;;;;;;;;;4.10;99.90;;;;;;5094620;28;19919;-74
2022/11/19 07:12:54;;;;;;;;;;;4.10;99.90;;;;;;5095211;28;19914;-72
2022/11/19 07:15:19;;;;;;;;;;;4.10;99.90;;;;;;5094634;28;20361;-72
2022/11/19 07:17:45;;;;;;;;;;;4.00;99.90;;;;;;5095106;28;19909;-72
2022/11/19 07:20:10;;;;;;;;;;;3.90;99.90;;;;;;5094543;28;19920;-73
2022/11/19 07:22:36;;;;;;;;;;;3.90;99.90;;;;;;5095060;28;19912;-73
2022/11/19 07:25:01;;;;;;;;;;;3.80;99.90;;;;;;5094662;28;19908;-72
2022/11/19 07:27:27;;;;;;;;;;;3.80;99.90;;;;;;5094966;28;19940;-74
2022/11/19 07:29:52;;;;;;;;;;;3.90;99.90;;;;;;5094264;28;19919;-73
2022/11/19 07:32:18;;;;;;;;;;;4.00;99.90;;;;;;5094620;28;19908;-71
2022/11/19 07:34:43;;;;;;;;;;;4.00;99.90;;;;;;5094554;28;19999;-72
2022/11/19 07:37:09;;;;;;;;;;;4.00;99.90;;;;;;5094254;28;19973;-71
2022/11/19 07:39:34;;;;;;;;;;;4.00;99.90;;;;;;5094191;28;20030;-72
2022/11/19 07:44:52;;;;;;;;;;;4.10;99.90;;;;;;5062767;28;19908;-71
2022/11/19 07:47:17;;;;;;;;;;;4.10;99.90;;;;;;5094343;28;19915;-72
2022/11/19 07:49:43;;;;;;;;;;;4.20;99.90;;;;;;5093931;28;19963;-72
2022/11/19 07:52:08;;;;;;;;;;;4.30;99.90;;;;;;5094135;28;19926;-73
2022/11/19 07:54:33;;;;;;;;;;;4.20;99.90;;;;;;5093983;28;19908;-73
2022/11/19 07:56:59;;;;;;;;;;;4.30;99.90;;;;;;5094231;28;20354;-71
2022/11/19 07:59:25;;;;;;;;;;;4.40;99.90;;;;;;5093902;28;19961;-72
2022/11/19 08:01:51;;;;;;;;;;;4.40;99.90;;;;;;5094193;28;20269;-73
2022/11/19 08:04:17;;;;;;;;;;;4.40;99.90;;;;;;5093852;28;19913;-74
2022/11/19 08:06:42;;;;;;;;;;;4.50;99.90;;;;;;5094362;28;19908;-73
2022/11/19 08:09:08;;;;;;;;;;;4.50;99.90;;;;;;5093972;28;20006;-73
2022/11/19 08:11:33;;;;;;;;;;;4.60;99.90;;;;;;5093764;28;20366;-72
2022/11/19 08:14:00;;;;;;;;;;;4.70;99.90;;;;;;5093345;28;20308;-72
2022/11/19 08:19:11;;;;;;;;;;;4.90;99.90;;;;;;5094040;28;19915;-72
2022/11/19 08:21:41;;;;;;;;;;;4.90;99.90;;;;;;5093980;28;19943;-73
2022/11/19 08:24:07;;;;;;;;;;;4.90;99.90;;;;;;5093624;28;19916;-74
2022/11/19 08:26:33;;;;;;;;;;;4.90;99.90;;;;;;5093872;28;19909;-72
2022/11/19 08:28:59;;;;;;;;;;;4.90;99.90;;;;;;5093490;28;19912;-74
2022/11/19 08:31:25;;;;;;;;;;;5.00;99.90;;;;;;5093834;28;19908;-73
2022/11/19 08:33:51;;;;;;;;;;;5.00;99.90;;;;;;5093494;28;20343;-73
2022/11/19 08:36:17;;;;;;;;;;;5.00;99.90;;;;;;5093509;28;19940;-73
2022/11/19 08:38:42;;;;;;;;;;;5.00;99.90;;;;;;5093766;28;20439;-73
2022/11/19 08:44:00;;;;;;;;;;;5.20;99.90;;;;;;5077063;28;19908;-74
2022/11/19 08:46:26;;;;;;;;;;;5.40;99.90;;;;;;5093445;28;20354;-73
2022/11/19 08:48:51;;;;;;;;;;;5.50;99.90;;;;;;5093338;28;19951;-72
2022/11/19 08:51:17;;;;;;;;;;;5.60;99.90;;;;;;5093501;28;20277;-73
2022/11/19 08:53:42;;;;;;;;;;;5.60;99.90;;;;;;5093666;28;20332;-73
2022/11/19 08:56:08;;;;;;;;;;;5.70;99.90;;;;;;5093356;28;19915;-73
2022/11/19 08:58:34;;;;;;;;;;;5.70;99.90;;;;;;5093327;28;19916;-73
2022/11/19 09:01:07;;;;;;;;;;;5.80;99.90;;;;;;5076348;28;20041;-73
2022/11/19 09:03:32;;;;;;;;;;;5.80;99.90;;;;;;5093600;28;19908;-72
2022/11/19 09:05:58;;;;;;;;;;;5.90;99.90;;;;;;5093794;28;19909;-72
2022/11/19 09:08:24;;;;;;;;;;;6.20;99.90;;;;;;5093200;28;19993;-74
2022/11/19 09:10:49;;;;;;;;;;;6.70;99.90;;;;;;5093516;28;19976;-73
2022/11/19 09:13:15;;;;;;;;;;;7.10;99.90;;;;;;5093164;28;19958;-72
2022/11/19 09:15:40;;;;;;;;;;;7.50;99.90;;;;;;5093712;28;20448;-73
2022/11/19 09:18:06;;;;;;;;;;;8.00;99.90;;;;;;5093397;28;19918;-74
2022/11/19 09:20:31;;;;;;;;;;;8.30;99.90;;;;;;5093124;28;19908;-73
2022/11/19 09:22:57;;;;;;;;;;;8.50;99.90;;;;;;5093373;28;19962;-72
2022/11/19 09:25:22;;;;;;;;;;;8.80;99.90;;;;;;5093871;28;20008;-74
2022/11/19 09:27:48;;;;;;;;;;;8.80;99.90;;;;;;5096718;28;19955;-73
2022/11/19 09:30:13;;;;;;;;;;;8.80;99.90;;;;;;5096576;28;19912;-72
2022/11/19 09:32:39;;;;;;;;;;;9.00;99.90;;;;;;5097164;28;19909;-72
2022/11/19 09:35:05;;;;;;;;;;;9.30;99.90;;;;;;5096569;28;19914;-72
2022/11/19 09:37:32;;;;;;;;;;;9.50;99.90;;;;;;5096504;28;19908;-72
2022/11/19 09:39:58;;;;;;;;;;;9.70;99.90;;;;;;5096444;28;19915;-72
2022/11/19 09:42:39;;;;;;;;;;;9.80;99.90;;;;;;5096721;28;19908;-74
2022/11/19 09:45:04;;;;;;;;;;;9.80;99.90;;;;;;5096356;28;19960;-74
2022/11/19 09:47:49;;;;;;;;;;;10.00;99.90;;;;;;5096896;28;19998;-71
2022/11/19 09:50:20;;;;;;;;;;;10.20;99.90;;;;;;5096205;28;19955;-74
2022/11/19 09:52:52;;;;;;;;;;;10.40;99.90;;;;;;5096070;28;19969;-73
2022/11/19 09:55:33;;;;;;;;;;;10.60;99.90;;;;;;5096713;28;19915;-73
2022/11/19 09:57:59;;;;;;;;;;;10.70;99.90;;;;;;5094718;28;20376;-78
2022/11/19 10:00:26;;;;;;;;;;;10.80;99.90;;;;;;5097614;28;20331;-78
2022/11/19 10:02:52;;;;;;;;;;;10.80;99.90;;;;;;5104656;28;19915;-79
2022/11/19 10:05:39;;;;;;;;;;;10.80;99.90;;;;;;5105272;28;19908;-77
2022/11/19 10:08:04;;;;;;;;;;;10.90;99.90;;;;;;5097924;28;19908;-76
2022/11/19 10:10:39;;;;;;;;;;;10.90;99.90;;;;;;5095596;28;19913;-76
2022/11/19 10:13:11;;;;;;;;;;;11.00;99.90;;;;;;5096131;28;19908;-77
2022/11/19 10:15:56;;;;;;;;;;;10.90;99.90;;;;;;5096316;28;19912;-79
2022/11/19 10:18:36;;;;;;;;;;;11.00;99.90;;;;;;5095680;28;19908;-79
2022/11/19 10:21:07;;;;;;;;;;;11.00;99.90;;;;;;5095683;28;19951;-74
2022/11/19 10:23:33;;;;;;;;;;;11.20;99.90;;;;;;5096322;28;19908;-76
2022/11/19 10:26:03;;;;;;;;;;;11.30;99.90;;;;;;5077360;28;19908;-75
2022/11/19 10:28:31;;;;;;;;;;;11.20;99.90;;;;;;5095417;28;19915;-74
2022/11/19 10:31:13;;;;;;;;;;;11.20;99.90;;;;;;5095653;28;19961;-76
2022/11/19 10:33:59;;;;;;;;;;;11.30;99.90;;;;;;5077208;28;19908;-76
2022/11/19 10:36:29;;;;;;;;;;;11.30;99.90;;;;;;5044367;28;19908;-74
2022/11/19 10:39:02;;;;;;;;;;;11.40;99.90;;;;;;5095271;28;19916;-76
2022/11/19 10:41:31;;;;;;;;;;;11.40;99.90;;;;;;5077886;28;19916;-74
2022/11/19 10:43:59;;;;;;;;;;;11.40;99.90;;;;;;5095102;28;20006;-74
2022/11/19 10:46:26;;;;;;;;;;;11.40;99.90;;;;;;5095426;28;19948;-74
2022/11/19 10:48:55;;;;;;;;;;;11.50;99.90;;;;;;5095034;28;19912;-75
2022/11/19 10:51:22;;;;;;;;;;;11.40;99.90;;;;;;5094779;28;19970;-74
2022/11/19 10:53:49;;;;;;;;;;;11.40;99.90;;;;;;5095706;28;19920;-74
2022/11/19 10:56:17;;;;;;;;;;;11.40;99.90;;;;;;5095217;28;19969;-72
2022/11/19 10:58:45;;;;;;;;;;;11.40;99.90;;;;;;5094884;28;20003;-74
2022/11/19 11:01:13;;;;;;;;;;;11.40;99.90;;;;;;5094761;28;19913;-77
2022/11/19 11:03:48;;;;;;;;;;;11.30;99.90;;;;;;5093967;28;20481;-75
2022/11/19 11:06:14;;;;;;;;;;;11.20;99.90;;;;;;5095288;28;20013;-74
2022/11/19 11:08:47;;;;;;;;;;;11.10;99.90;;;;;;5094618;28;20262;-73
2022/11/19 11:11:18;;;;;;;;;;;10.90;99.90;;;;;;5095183;28;19929;-72
2022/11/19 11:16:38;;;;;;;;;;;10.90;99.90;;;;;;5094259;28;19935;-73
2022/11/19 11:19:10;;;;;;;;;;;10.90;99.90;;;;;;5093044;28;19915;-72
2022/11/19 11:21:38;;;;;;;;;;;10.80;99.90;;;;;;5091020;28;20377;-71
2022/11/19 11:24:04;;;;;;;;;;;10.80;99.90;;;;;;5092550;28;20314;-73
2022/11/19 11:26:32;;;;;;;;;;;10.70;99.90;;;;;;5092478;28;19915;-71
2022/11/19 11:29:00;;;;;;;;;;;10.70;99.90;;;;;;5074481;28;19912;-72
2022/11/19 11:31:29;;;;;;;;;;;10.70;99.90;;;;;;5093702;28;19957;-73
2022/11/19 11:33:55;;;;;;;;;;;10.70;99.90;;;;;;5094237;28;19915;-72
2022/11/19 11:36:23;;;;;;;;;;;10.70;99.90;;;;;;5094148;28;19916;-73
2022/11/19 11:38:50;;;;;;;;;;;10.80;99.90;;;;;;5094442;28;20045;-71
2022/11/19 11:41:17;;;;;;;;;;;10.80;99.90;;;;;;5094200;28;19908;-72
2022/11/19 11:44:00;;;;;;;;;;;10.90;99.90;;;;;;5094281;28;19908;-72
2022/11/19 11:46:34;;;;;;;;;;;10.90;99.90;;;;;;5094077;28;19908;-74
2022/11/19 11:49:00;;;;;;;;;;;10.80;99.90;;;;;;5093017;28;19912;-72
2022/11/19 11:51:27;;;;;;;;;;;10.80;99.90;;;;;;5093804;28;19908;-73
2022/11/19 11:54:06;;;;;;;;;;;10.80;99.90;;;;;;5094167;28;19923;-72
2022/11/19 11:56:31;;;;;;;;;;;10.80;99.90;;;;;;5093848;28;19912;-73
2022/11/19 11:59:12;;;;;;;;;;;10.90;99.90;;;;;;5093813;28;19919;-71
2022/11/19 12:01:39;;;;;;;;;;;10.90;99.90;;;;;;5094151;28;19943;-72
2022/11/19 12:04:10;;;;;;;;;;;10.90;99.90;;;;;;5093852;28;20358;-72
2022/11/19 12:06:40;;;;;;;;;;;11.00;99.90;;;;;;5094645;28;19969;-72
2022/11/19 12:09:32;;;;;;;;;;;10.90;99.90;;;;;;5094004;28;20457;-72
2022/11/19 12:12:02;;;;;;;;;;;11.00;99.90;;;;;;5054959;28;19912;-73
2022/11/19 12:14:33;;;;;;;;;;;11.10;99.90;;;;;;5093607;28;20336;-71
2022/11/19 12:17:03;;;;;;;;;;;11.10;99.90;;;;;;5093623;28;19908;-71
2022/11/19 12:19:43;;;;;;;;;;;11.10;99.90;;;;;;5093546;28;19912;-72
2022/11/19 12:22:09;;;;;;;;;;;11.20;99.90;;;;;;5093889;28;19915;-71
2022/11/19 12:24:37;;;;;;;;;;;11.20;99.90;;;;;;5093586;28;19909;-73
2022/11/19 12:27:21;;;;;;;;;;;11.30;99.90;;;;;;5093593;28;19908;-72
2022/11/19 12:29:49;;;;;;;;;;;11.40;99.90;;;;;;5093756;28;20404;-73
2022/11/19 12:32:33;;;;;;;;;;;11.40;99.90;;;;;;5093849;28;19935;-73
2022/11/19 12:35:17;;;;;;;;;;;11.50;99.90;;;;;;5094049;28;20346;-73
2022/11/19 12:37:57;;;;;;;;;;;11.60;99.90;;;;;;5093759;28;20335;-72
2022/11/19 12:40:29;;;;;;;;;;;11.70;99.90;;;;;;5093518;28;19916;-71
2022/11/19 12:43:01;;;;;;;;;;;11.60;99.90;;;;;;5093754;28;19915;-71
2022/11/19 12:45:36;;;;;;;;;;;11.70;99.90;;;;;;5093451;28;19913;-72
2022/11/19 12:48:21;;;;;;;;;;;11.80;99.90;;;;;;5093684;28;19915;-72
2022/11/19 12:50:46;;;;;;;;;;;11.90;99.90;;;;;;5093527;28;19912;-70
2022/11/19 12:53:12;;;;;;;;;;;11.80;99.90;;;;;;5093032;28;19928;-71
2022/11/19 12:55:37;;;;;;;;;;;11.70;99.90;;;;;;5093367;28;20282;-73
2022/11/19 12:58:23;;;;;;;;;;;11.50;99.90;;;;;;5093310;28;20361;-72
2022/11/19 13:00:51;;;;;;;;;;;11.20;99.90;;;;;;5094868;28;20385;-73
2022/11/19 13:03:46;;;;;;;;;;;11.10;99.90;;;;;;5097216;28;19946;-72
2022/11/19 13:06:17;;;;;;;;;;;11.00;99.90;;;;;;5075580;28;20391;-73
2022/11/19 13:08:46;;;;;;;;;;;10.90;99.90;;;;;;5097027;28;19982;-72
2022/11/19 13:11:16;;;;;;;;;;;10.90;99.90;;;;;;5097347;28;20259;-72
2022/11/19 13:13:51;;;;;;;;;;;11.00;99.90;;;;;;5097026;28;20382;-71
2022/11/19 13:16:18;;;;;;;;;;;11.10;99.90;;;;;;5096983;28;19920;-71
2022/11/19 13:18:46;;;;;;;;;;;11.30;99.90;;;;;;5097241;28;19908;-71
2022/11/19 13:21:12;;;;;;;;;;;11.40;99.90;;;;;;5096872;28;19908;-74
2022/11/19 13:23:39;;;;;;;;;;;11.50;99.90;;;;;;5097318;28;19915;-72
2022/11/19 13:26:08;;;;;;;;;;;11.50;99.90;;;;;;5096785;28;19912;-71
2022/11/19 13:28:56;;;;;;;;;;;11.60;99.90;;;;;;5097246;28;19915;-71
2022/11/19 13:31:28;;;;;;;;;;;11.60;99.90;;;;;;5049500;28;19931;-72
2022/11/19 13:34:11;;;;;;;;;;;11.70;99.90;;;;;;5096937;28;20398;-72
2022/11/19 13:36:40;;;;;;;;;;;11.80;99.90;;;;;;5096946;28;20281;-71
2022/11/19 13:39:25;;;;;;;;;;;11.80;99.90;;;;;;5096785;28;19908;-73
2022/11/19 13:44:42;;;;;;;;;;;11.90;99.90;;;;;;5096410;28;19957;-71
2022/11/19 13:47:29;;;;;;;;;;;12.00;99.90;;;;;;5096917;28;19965;-72
2022/11/19 13:50:03;;;;;;;;;;;12.00;99.90;;;;;;5079583;28;20014;-73
2022/11/19 13:52:30;;;;;;;;;;;12.00;99.90;;;;;;5096020;28;20408;-71
2022/11/19 13:54:57;;;;;;;;;;;12.00;99.90;;;;;;5096183;28;19908;-71
2022/11/19 13:57:33;;;;;;;;;;;12.00;99.90;;;;;;5096126;28;19908;-70
2022/11/19 14:00:07;;;;;;;;;;;12.00;99.90;;;;;;5096360;28;19915;-74
2022/11/19 14:02:52;;;;;;;;;;;12.00;99.90;;;;;;5096102;28;19908;-72
2022/11/19 14:05:36;;;;;;;;;;;11.80;99.90;;;;;;5096365;28;19908;-73
2022/11/19 14:08:15;;;;;;;;;;;11.80;99.90;;;;;;5095899;28;19915;-72
2022/11/19 14:10:49;;;;;;;;;;;11.70;99.90;;;;;;5095757;28;19919;-71
2022/11/19 14:13:33;;;;;;;;;;;11.50;99.90;;;;;;5095164;28;19952;-71
2022/11/19 14:27:34;;;;;;;;;;;10.90;99.90;;;;;;5033331;28;20302;-73
2022/11/19 14:30:01;;;;;;;;;;;10.80;99.90;;;;;;5082585;28;20023;-72
2022/11/19 14:32:31;;;;;;;;;;;10.70;99.90;;;;;;5095750;28;19908;-72
2022/11/19 14:34:59;;;;;;;;;;;10.60;99.90;;;;;;5095434;28;19912;-72
2022/11/19 14:37:25;;;;;;;;;;;10.60;99.90;;;;;;5095646;28;19915;-71
2022/11/19 14:39:57;;;;;;;;;;;10.50;99.90;;;;;;5095316;28;19908;-71
2022/11/19 14:42:22;;;;;;;;;;;10.50;99.90;;;;;;5095602;28;20011;-73
2022/11/19 14:45:00;;;;;;;;;;;10.40;99.90;;;;;;5095164;28;19951;-71
2022/11/19 14:47:27;;;;;;;;;;;10.40;99.90;;;;;;5095192;28;20412;-73
2022/11/19 14:49:53;;;;;;;;;;;10.40;99.90;;;;;;5095334;28;19920;-70
2022/11/19 14:52:24;;;;;;;;;;;10.40;99.90;;;;;;5094940;28;19920;-71
2022/11/19 14:54:59;;;;;;;;;;;10.40;99.90;;;;;;5095049;28;19908;-73
2022/11/19 14:57:32;;;;;;;;;;;10.40;99.90;;;;;;5095351;28;19908;-70
2022/11/19 15:00:03;;;;;;;;;;;10.40;99.90;;;;;;5094951;28;19908;-73
2022/11/19 15:02:38;;;;;;;;;;;10.40;99.90;;;;;;5095070;28;19915;-73
2022/11/19 15:05:16;;;;;;;;;;;10.40;99.90;;;;;;5095202;28;19912;-71
2022/11/19 15:07:44;;;;;;;;;;;10.40;99.90;;;;;;5094857;28;19908;-71
2022/11/19 15:10:09;;;;;;;;;;;10.50;99.90;;;;;;5094971;28;19912;-72
2022/11/19 15:12:45;;;;;;;;;;;10.50;99.90;;;;;;5094664;28;19930;-71
2022/11/19 15:15:33;;;;;;;;;;;10.50;99.90;;;;;;5094636;28;19908;-74
2022/11/19 15:18:06;;;;;;;;;;;10.50;99.90;;;;;;5081575;28;20002;-72
2022/11/19 15:20:35;;;;;;;;;;;10.50;99.90;;;;;;5095174;28;19915;-72